sensor_id;sensor_type;location;lat;lon;timestamp;temperature;humidity
54082;DHT22;39986;50.770;0.266;2023-08-01T00:01:50;16.00;99.90
54082;DHT22;39986;50.770;0.266;2023-08-01T00:04:15;16.00;99.90
54082;DHT22;39986;50.770;0.266;2023-08-01T00:06:41;15.90;99.90
54082;DHT22;39986;50.770;0.266;2023-08-01T00:09:08;15.90;99.90
54082;DHT22;39986;50.770;0.266;2023-08-01T00:11:34;15.90;99.90
54082;DHT22;39986;50.770;0.266;2023-08-01T00:13:59;15.80;99.90
54082;DHT22;39986;50.770;0.266;2023-08-01T00:16:25;15.80;99.90
54082;DHT22;39986;50.770;0.266;2023-08-01T00:18:51;15.70;99.90
54082;DHT22;39986;50.770;0.266;2023-08-01T00:21:16;15.70;99.90
54082;DHT22;39986;50.770;0.266;2023-08-01T00:23:42;15.70;99.90
54082;DHT22;39986;50.770;0.266;2023-08-01T00:26:08;15.70;99.90
54082;DHT22;39986;50.770;0.266;2023-08-01T00:28:33;15.70;99.90
54082;DHT22;39986;50.770;0.266;2023-08-01T00:31:02;15.70;99.90
54082;DHT22;39986;50.770;0.266;2023-08-01T00:33:28;15.70;99.90
54082;DHT22;39986;50.770;0.266;2023-08-01T00:35:53;15.60;99.90
54082;DHT22;39986;50.770;0.266;2023-08-01T00:38:19;15.60;99.90
54082;DHT22;39986;50.770;0.266;2023-08-01T00:40:45;15.60;99.90
54082;DHT22;39986;50.770;0.266;2023-08-01T00:43:10;15.60;99.90
54082;DHT22;39986;50.770;0.266;2023-08-01T00:45:36;15.60;99.90
54082;DHT22;39986;50.770;0.266;2023-08-01T00:48:02;15.60;99.90
54082;DHT22;39986;50.770;0.266;2023-08-01T00:50:27;15.60;99.90
54082;DHT22;39986;50.770;0.266;2023-08-01T00:52:53;15.60;99.90
54082;DHT22;39986;50.770;0.266;2023-08-01T00:55:19;15.60;99.90
54082;DHT22;39986;50.770;0.266;2023-08-01T00:57:46;15.60;99.90
54082;DHT22;39986;50.770;0.266;2023-08-01T01:00:12;15.60;99.90
54082;DHT22;39986;50.770;0.266;2023-08-01T01:02:38;15.60;99.90
54082;DHT22;39986;50.770;0.266;2023-08-01T01:05:04;15.70;99.90
54082;DHT22;39986;50.770;0.266;2023-08-01T01:07:30;15.70;99.90
54082;DHT22;39986;50.770;0.266;2023-08-01T01:13:03;15.50;99.90
54082;DHT22;39986;50.770;0.266;2023-08-01T01:15:30;15.70;99.90
54082;DHT22;39986;50.770;0.266;2023-08-01T01:17:56;15.70;99.90
54082;DHT22;39986;50.770;0.266;2023-08-01T01:20:24;15.60;99.90
54082;DHT22;39986;50.770;0.266;2023-08-01T01:22:52;15.70;99.90
54082;DHT22;39986;50.770;0.266;2023-08-01T01:25:19;15.60;99.90
54082;DHT22;39986;50.770;0.266;2023-08-01T01:27:45;15.70;99.90
54082;DHT22;39986;50.770;0.266;2023-08-01T01:30:11;15.60;99.90
54082;DHT22;39986;50.770;0.266;2023-08-01T01:32:37;15.70;99.90
54082;DHT22;39986;50.770;0.266;2023-08-01T01:35:03;15.60;99.90
54082;DHT22;39986;50.770;0.266;2023-08-01T01:37:30;15.70;99.90
54082;DHT22;39986;50.770;0.266;2023-08-01T01:39:56;15.70;99.90
54082;DHT22;39986;50.770;0.266;2023-08-01T01:42:21;15.80;99.90
54082;DHT22;39986;50.770;0.266;2023-08-01T01:44:47;15.80;99.90
54082;DHT22;39986;50.770;0.266;2023-08-01T01:47:12;15.80;99.90
54082;DHT22;39986;50.770;0.266;2023-08-01T01:49:38;15.80;99.90
54082;DHT22;39986;50.770;0.266;2023-08-01T01:52:04;15.80;99.90
54082;DHT22;39986;50.770;0.266;2023-08-01T01:54:29;15.80;99.90
54082;DHT22;39986;50.770;0.266;2023-08-01T01:56:55;15.80;99.90
54082;DHT22;39986;50.770;0.266;2023-08-01T01:59:21;15.90;99.90
54082;DHT22;39986;50.770;0.266;2023-08-01T02:01:46;15.90;99.90
54082;DHT22;39986;50.770;0.266;2023-08-01T02:04:12;16.00;99.90
54082;DHT22;39986;50.770;0.266;2023-08-01T02:06:38;15.90;99.90
54082;DHT22;39986;50.770;0.266;2023-08-01T02:09:04;16.00;99.90
54082;DHT22;39986;50.770;0.266;2023-08-01T02:11:30;16.10;99.90
54082;DHT22;39986;50.770;0.266;2023-08-01T02:13:55;16.00;99.90
54082;DHT22;39986;50.770;0.266;2023-08-01T02:16:21;16.10;99.90
54082;DHT22;39986;50.770;0.266;2023-08-01T02:18:47;16.10;99.90
54082;DHT22;39986;50.770;0.266;2023-08-01T02:21:12;16.10;99.90
54082;DHT22;39986;50.770;0.266;2023-08-01T02:23:38;16.10;99.90
54082;DHT22;39986;50.770;0.266;2023-08-01T02:26:03;16.10;99.90
54082;DHT22;39986;50.770;0.266;2023-08-01T02:28:29;16.10;99.90
54082;DHT22;39986;50.770;0.266;2023-08-01T02:30:55;16.10;99.90
54082;DHT22;39986;50.770;0.266;2023-08-01T02:33:20;16.10;99.90
54082;DHT22;39986;50.770;0.266;2023-08-01T02:35:46;16.10;99.90
54082;DHT22;39986;50.770;0.266;2023-08-01T02:38:13;16.20;99.90
54082;DHT22;39986;50.770;0.266;2023-08-01T02:40:38;16.20;99.90
54082;DHT22;39986;50.770;0.266;2023-08-01T02:43:04;16.20;99.90
54082;DHT22;39986;50.770;0.266;2023-08-01T02:45:30;16.50;99.90
54082;DHT22;39986;50.770;0.266;2023-08-01T02:47:55;16.30;99.90
54082;DHT22;39986;50.770;0.266;2023-08-01T02:50:21;16.30;99.90
54082;DHT22;39986;50.770;0.266;2023-08-01T02:52:46;16.30;99.90
54082;DHT22;39986;50.770;0.266;2023-08-01T02:55:12;16.30;99.90
54082;DHT22;39986;50.770;0.266;2023-08-01T02:57:37;16.30;99.90
54082;DHT22;39986;50.770;0.266;2023-08-01T03:00:03;16.30;99.90
54082;DHT22;39986;50.770;0.266;2023-08-01T03:02:31;16.30;99.90
54082;DHT22;39986;50.770;0.266;2023-08-01T03:04:57;16.30;99.90
54082;DHT22;39986;50.770;0.266;2023-08-01T03:07:22;16.20;99.90
54082;DHT22;39986;50.770;0.266;2023-08-01T03:09:48;16.20;99.90
54082;DHT22;39986;50.770;0.266;2023-08-01T03:12:13;16.00;99.90
54082;DHT22;39986;50.770;0.266;2023-08-01T03:14:39;16.00;99.90
54082;DHT22;39986;50.770;0.266;2023-08-01T03:17:08;15.90;99.90
54082;DHT22;39986;50.770;0.266;2023-08-01T03:19:34;15.80;99.90
54082;DHT22;39986;50.770;0.266;2023-08-01T03:21:59;15.80;99.90
54082;DHT22;39986;50.770;0.266;2023-08-01T03:24:25;15.70;99.90
54082;DHT22;39986;50.770;0.266;2023-08-01T03:26:51;15.70;99.90
54082;DHT22;39986;50.770;0.266;2023-08-01T03:29:16;15.70;99.90
54082;DHT22;39986;50.770;0.266;2023-08-01T03:31:42;15.70;99.90
54082;DHT22;39986;50.770;0.266;2023-08-01T03:34:08;15.70;99.90
54082;DHT22;39986;50.770;0.266;2023-08-01T03:36:34;15.70;99.90
54082;DHT22;39986;50.770;0.266;2023-08-01T03:39:02;15.70;99.90
54082;DHT22;39986;50.770;0.266;2023-08-01T03:41:29;15.70;99.90
54082;DHT22;39986;50.770;0.266;2023-08-01T03:43:54;15.70;99.90
54082;DHT22;39986;50.770;0.266;2023-08-01T03:46:20;15.70;99.90
54082;DHT22;39986;50.770;0.266;2023-08-01T03:48:45;15.70;99.90
54082;DHT22;39986;50.770;0.266;2023-08-01T03:51:11;15.70;99.90
54082;DHT22;39986;50.770;0.266;2023-08-01T03:53:37;15.70;99.90
54082;DHT22;39986;50.770;0.266;2023-08-01T03:56:02;15.70;99.90
54082;DHT22;39986;50.770;0.266;2023-08-01T03:58:28;15.70;99.90
54082;DHT22;39986;50.770;0.266;2023-08-01T04:00:53;15.70;99.90
54082;DHT22;39986;50.770;0.266;2023-08-01T04:03:19;15.60;99.90
54082;DHT22;39986;50.770;0.266;2023-08-01T04:05:45;15.70;99.90
54082;DHT22;39986;50.770;0.266;2023-08-01T04:08:10;15.70;99.90
54082;DHT22;39986;50.770;0.266;2023-08-01T04:10:36;15.70;99.90
54082;DHT22;39986;50.770;0.266;2023-08-01T04:13:01;15.60;99.90
54082;DHT22;39986;50.770;0.266;2023-08-01T04:15:27;15.60;99.90
54082;DHT22;39986;50.770;0.266;2023-08-01T04:17:53;15.60;99.90
54082;DHT22;39986;50.770;0.266;2023-08-01T04:20:18;15.50;99.90
54082;DHT22;39986;50.770;0.266;2023-08-01T04:22:44;15.50;99.90
54082;DHT22;39986;50.770;0.266;2023-08-01T04:25:09;15.40;99.90
54082;DHT22;39986;50.770;0.266;2023-08-01T04:27:35;15.40;99.90
54082;DHT22;39986;50.770;0.266;2023-08-01T04:30:00;15.30;99.90
54082;DHT22;39986;50.770;0.266;2023-08-01T04:32:26;15.30;99.90
54082;DHT22;39986;50.770;0.266;2023-08-01T04:34:52;15.40;99.90
54082;DHT22;39986;50.770;0.266;2023-08-01T04:37:17;15.30;99.90
54082;DHT22;39986;50.770;0.266;2023-08-01T04:39:45;15.30;99.90
54082;DHT22;39986;50.770;0.266;2023-08-01T04:42:11;15.30;99.90
54082;DHT22;39986;50.770;0.266;2023-08-01T04:44:37;15.30;99.90
54082;DHT22;39986;50.770;0.266;2023-08-01T04:47:02;15.30;99.90
54082;DHT22;39986;50.770;0.266;2023-08-01T04:49:28;15.40;99.90
54082;DHT22;39986;50.770;0.266;2023-08-01T04:51:54;15.50;99.90
54082;DHT22;39986;50.770;0.266;2023-08-01T04:54:21;15.50;99.90
54082;DHT22;39986;50.770;0.266;2023-08-01T04:56:46;15.50;99.90
54082;DHT22;39986;50.770;0.266;2023-08-01T04:59:12;15.50;99.90
54082;DHT22;39986;50.770;0.266;2023-08-01T05:01:37;15.50;99.90
54082;DHT22;39986;50.770;0.266;2023-08-01T05:04:03;15.60;99.90
54082;DHT22;39986;50.770;0.266;2023-08-01T05:06:28;15.60;99.90
54082;DHT22;39986;50.770;0.266;2023-08-01T05:08:54;15.80;99.90
54082;DHT22;39986;50.770;0.266;2023-08-01T05:11:20;15.70;99.90
54082;DHT22;39986;50.770;0.266;2023-08-01T05:13:47;15.80;99.90
54082;DHT22;39986;50.770;0.266;2023-08-01T05:16:12;15.90;99.90
54082;DHT22;39986;50.770;0.266;2023-08-01T05:18:38;15.90;99.90
54082;DHT22;39986;50.770;0.266;2023-08-01T05:21:03;15.80;99.90
54082;DHT22;39986;50.770;0.266;2023-08-01T05:23:29;15.80;99.90
54082;DHT22;39986;50.770;0.266;2023-08-01T05:25:54;15.80;99.90
54082;DHT22;39986;50.770;0.266;2023-08-01T05:28:20;15.80;99.90
54082;DHT22;39986;50.770;0.266;2023-08-01T05:30:47;15.80;99.90
54082;DHT22;39986;50.770;0.266;2023-08-01T05:33:13;16.00;99.90
54082;DHT22;39986;50.770;0.266;2023-08-01T05:35:38;16.50;99.90
54082;DHT22;39986;50.770;0.266;2023-08-01T05:38:04;16.90;99.90
54082;DHT22;39986;50.770;0.266;2023-08-01T05:40:29;17.10;99.90
54082;DHT22;39986;50.770;0.266;2023-08-01T05:42:55;17.10;99.90
54082;DHT22;39986;50.770;0.266;2023-08-01T05:45:20;17.00;99.90
54082;DHT22;39986;50.770;0.266;2023-08-01T05:47:46;17.10;99.90
54082;DHT22;39986;50.770;0.266;2023-08-01T05:50:12;17.00;99.90
54082;DHT22;39986;50.770;0.266;2023-08-01T05:52:37;16.90;99.90
54082;DHT22;39986;50.770;0.266;2023-08-01T05:55:03;16.80;99.90
54082;DHT22;39986;50.770;0.266;2023-08-01T05:57:29;16.80;99.90
54082;DHT22;39986;50.770;0.266;2023-08-01T05:59:54;16.70;99.90
54082;DHT22;39986;50.770;0.266;2023-08-01T06:02:20;16.70;99.90
54082;DHT22;39986;50.770;0.266;2023-08-01T06:04:45;16.60;99.90
54082;DHT22;39986;50.770;0.266;2023-08-01T06:07:11;16.50;99.90
54082;DHT22;39986;50.770;0.266;2023-08-01T06:09:37;16.40;99.90
54082;DHT22;39986;50.770;0.266;2023-08-01T06:12:02;16.40;99.90
54082;DHT22;39986;50.770;0.266;2023-08-01T06:14:31;16.40;99.90
54082;DHT22;39986;50.770;0.266;2023-08-01T06:16:57;16.50;99.90
54082;DHT22;39986;50.770;0.266;2023-08-01T06:19:22;16.60;99.90
54082;DHT22;39986;50.770;0.266;2023-08-01T06:21:48;16.70;99.90
54082;DHT22;39986;50.770;0.266;2023-08-01T06:24:13;16.90;99.90
54082;DHT22;39986;50.770;0.266;2023-08-01T06:26:39;16.70;99.90
54082;DHT22;39986;50.770;0.266;2023-08-01T06:29:04;16.70;99.90
54082;DHT22;39986;50.770;0.266;2023-08-01T06:31:30;16.60;99.90
54082;DHT22;39986;50.770;0.266;2023-08-01T06:33:56;16.60;99.90
54082;DHT22;39986;50.770;0.266;2023-08-01T06:36:21;16.60;99.90
54082;DHT22;39986;50.770;0.266;2023-08-01T06:38:47;16.60;99.90
54082;DHT22;39986;50.770;0.266;2023-08-01T06:41:12;16.60;99.90
54082;DHT22;39986;50.770;0.266;2023-08-01T06:43:38;16.70;99.90
54082;DHT22;39986;50.770;0.266;2023-08-01T06:46:04;16.80;99.90
54082;DHT22;39986;50.770;0.266;2023-08-01T06:48:30;16.90;99.90
54082;DHT22;39986;50.770;0.266;2023-08-01T06:50:56;17.10;99.90
54082;DHT22;39986;50.770;0.266;2023-08-01T06:53:22;17.30;99.90
54082;DHT22;39986;50.770;0.266;2023-08-01T06:55:48;17.40;99.90
54082;DHT22;39986;50.770;0.266;2023-08-01T06:58:15;17.50;99.90
54082;DHT22;39986;50.770;0.266;2023-08-01T07:00:40;17.50;99.90
54082;DHT22;39986;50.770;0.266;2023-08-01T07:03:06;17.50;99.90
54082;DHT22;39986;50.770;0.266;2023-08-01T07:05:31;17.60;99.90
54082;DHT22;39986;50.770;0.266;2023-08-01T07:07:57;17.60;99.90
54082;DHT22;39986;50.770;0.266;2023-08-01T07:10:23;17.60;99.90
54082;DHT22;39986;50.770;0.266;2023-08-01T07:12:50;17.60;99.90
54082;DHT22;39986;50.770;0.266;2023-08-01T07:15:16;17.60;99.90
54082;DHT22;39986;50.770;0.266;2023-08-01T07:17:41;17.60;99.90
54082;DHT22;39986;50.770;0.266;2023-08-01T07:20:07;17.60;99.90
54082;DHT22;39986;50.770;0.266;2023-08-01T07:22:33;17.60;99.90
54082;DHT22;39986;50.770;0.266;2023-08-01T07:24:59;17.60;99.90
54082;DHT22;39986;50.770;0.266;2023-08-01T07:27:24;17.70;99.90
54082;DHT22;39986;50.770;0.266;2023-08-01T07:29:50;17.80;99.90
54082;DHT22;39986;50.770;0.266;2023-08-01T07:32:18;17.90;99.90
54082;DHT22;39986;50.770;0.266;2023-08-01T07:34:43;18.00;99.90
54082;DHT22;39986;50.770;0.266;2023-08-01T07:37:09;18.00;99.90
54082;DHT22;39986;50.770;0.266;2023-08-01T07:39:36;18.10;99.90
54082;DHT22;39986;50.770;0.266;2023-08-01T07:42:01;17.90;99.90
54082;DHT22;39986;50.770;0.266;2023-08-01T07:44:27;18.00;99.90
54082;DHT22;39986;50.770;0.266;2023-08-01T07:46:54;17.90;99.90
54082;DHT22;39986;50.770;0.266;2023-08-01T07:49:19;18.00;99.90
54082;DHT22;39986;50.770;0.266;2023-08-01T07:51:45;18.00;99.90
54082;DHT22;39986;50.770;0.266;2023-08-01T07:54:11;18.00;99.90
54082;DHT22;39986;50.770;0.266;2023-08-01T07:56:36;18.20;99.90
54082;DHT22;39986;50.770;0.266;2023-08-01T07:59:02;18.30;99.90
54082;DHT22;39986;50.770;0.266;2023-08-01T08:01:27;18.50;99.90
54082;DHT22;39986;50.770;0.266;2023-08-01T08:03:53;18.50;99.90
54082;DHT22;39986;50.770;0.266;2023-08-01T08:06:19;18.60;99.90
54082;DHT22;39986;50.770;0.266;2023-08-01T08:08:46;18.70;99.90
54082;DHT22;39986;50.770;0.266;2023-08-01T08:11:12;18.80;99.90
54082;DHT22;39986;50.770;0.266;2023-08-01T08:13:37;18.90;99.90
54082;DHT22;39986;50.770;0.266;2023-08-01T08:16:04;18.90;99.90
54082;DHT22;39986;50.770;0.266;2023-08-01T08:18:30;19.00;99.90
54082;DHT22;39986;50.770;0.266;2023-08-01T08:20:55;19.10;99.90
54082;DHT22;39986;50.770;0.266;2023-08-01T08:23:21;19.40;99.90
54082;DHT22;39986;50.770;0.266;2023-08-01T08:25:47;19.30;99.90
54082;DHT22;39986;50.770;0.266;2023-08-01T08:28:12;19.30;99.90
54082;DHT22;39986;50.770;0.266;2023-08-01T08:30:38;19.20;99.90
54082;DHT22;39986;50.770;0.266;2023-08-01T08:33:04;19.30;99.90
54082;DHT22;39986;50.770;0.266;2023-08-01T08:35:32;19.30;99.90
54082;DHT22;39986;50.770;0.266;2023-08-01T08:37:59;19.20;99.90
54082;DHT22;39986;50.770;0.266;2023-08-01T08:40:24;19.20;99.90
54082;DHT22;39986;50.770;0.266;2023-08-01T08:42:52;19.10;99.90
54082;DHT22;39986;50.770;0.266;2023-08-01T08:45:18;19.20;99.90
54082;DHT22;39986;50.770;0.266;2023-08-01T08:47:44;19.40;99.90
54082;DHT22;39986;50.770;0.266;2023-08-01T08:50:11;19.50;99.90
54082;DHT22;39986;50.770;0.266;2023-08-01T08:52:38;19.50;99.90
54082;DHT22;39986;50.770;0.266;2023-08-01T08:55:04;19.20;99.90
54082;DHT22;39986;50.770;0.266;2023-08-01T08:57:30;19.40;99.90
54082;DHT22;39986;50.770;0.266;2023-08-01T08:59:55;19.40;99.90
54082;DHT22;39986;50.770;0.266;2023-08-01T09:02:21;19.50;99.90
54082;DHT22;39986;50.770;0.266;2023-08-01T09:04:47;19.70;99.90
54082;DHT22;39986;50.770;0.266;2023-08-01T09:07:13;19.90;99.90
54082;DHT22;39986;50.770;0.266;2023-08-01T09:09:40;20.10;99.90
54082;DHT22;39986;50.770;0.266;2023-08-01T09:12:06;20.50;99.90
54082;DHT22;39986;50.770;0.266;2023-08-01T09:14:33;20.60;99.90
54082;DHT22;39986;50.770;0.266;2023-08-01T09:17:05;20.70;99.90
54082;DHT22;39986;50.770;0.266;2023-08-01T09:19:32;20.70;99.90
54082;DHT22;39986;50.770;0.266;2023-08-01T09:21:58;20.30;99.90
54082;DHT22;39986;50.770;0.266;2023-08-01T09:24:23;20.30;99.90
54082;DHT22;39986;50.770;0.266;2023-08-01T09:26:49;20.60;99.90
54082;DHT22;39986;50.770;0.266;2023-08-01T09:29:18;20.80;99.90
54082;DHT22;39986;50.770;0.266;2023-08-01T09:31:43;20.90;99.90
54082;DHT22;39986;50.770;0.266;2023-08-01T09:34:19;20.90;99.90
54082;DHT22;39986;50.770;0.266;2023-08-01T09:36:45;21.00;99.90
54082;DHT22;39986;50.770;0.266;2023-08-01T09:39:15;21.10;99.90
54082;DHT22;39986;50.770;0.266;2023-08-01T09:41:41;21.00;99.90
54082;DHT22;39986;50.770;0.266;2023-08-01T09:44:09;20.70;99.90
54082;DHT22;39986;50.770;0.266;2023-08-01T09:46:36;20.60;99.90
54082;DHT22;39986;50.770;0.266;2023-08-01T09:49:08;20.70;99.90
54082;DHT22;39986;50.770;0.266;2023-08-01T09:51:45;20.80;99.90
54082;DHT22;39986;50.770;0.266;2023-08-01T09:54:11;20.90;99.90
54082;DHT22;39986;50.770;0.266;2023-08-01T09:56:36;21.00;99.90
54082;DHT22;39986;50.770;0.266;2023-08-01T09:59:03;21.20;99.90
54082;DHT22;39986;50.770;0.266;2023-08-01T10:01:29;21.30;99.90
54082;DHT22;39986;50.770;0.266;2023-08-01T10:03:57;21.30;99.90
54082;DHT22;39986;50.770;0.266;2023-08-01T10:06:24;21.30;99.90
54082;DHT22;39986;50.770;0.266;2023-08-01T10:08:54;21.30;99.90
54082;DHT22;39986;50.770;0.266;2023-08-01T10:11:21;21.30;99.90
54082;DHT22;39986;50.770;0.266;2023-08-01T10:13:47;21.20;99.90
54082;DHT22;39986;50.770;0.266;2023-08-01T10:16:13;21.10;99.90
54082;DHT22;39986;50.770;0.266;2023-08-01T10:18:41;21.00;99.90
54082;DHT22;39986;50.770;0.266;2023-08-01T10:21:08;20.90;99.90
54082;DHT22;39986;50.770;0.266;2023-08-01T10:23:35;20.70;99.90
54082;DHT22;39986;50.770;0.266;2023-08-01T10:26:02;20.40;99.90
54082;DHT22;39986;50.770;0.266;2023-08-01T10:28:38;20.50;99.90
54082;DHT22;39986;50.770;0.266;2023-08-01T10:31:10;21.00;99.90
54082;DHT22;39986;50.770;0.266;2023-08-01T10:33:37;21.40;99.90
54082;DHT22;39986;50.770;0.266;2023-08-01T10:36:11;21.80;99.90
54082;DHT22;39986;50.770;0.266;2023-08-01T10:38:44;22.10;99.90
54082;DHT22;39986;50.770;0.266;2023-08-01T10:41:17;22.30;99.90
54082;DHT22;39986;50.770;0.266;2023-08-01T10:43:43;22.50;99.90
54082;DHT22;39986;50.770;0.266;2023-08-01T10:46:09;22.30;99.90
54082;DHT22;39986;50.770;0.266;2023-08-01T10:48:34;21.90;99.90
54082;DHT22;39986;50.770;0.266;2023-08-01T10:51:00;21.60;99.90
54082;DHT22;39986;50.770;0.266;2023-08-01T10:53:37;21.30;99.90
54082;DHT22;39986;50.770;0.266;2023-08-01T10:56:02;21.40;99.90
54082;DHT22;39986;50.770;0.266;2023-08-01T10:58:29;22.00;99.90
54082;DHT22;39986;50.770;0.266;2023-08-01T11:00:58;22.30;99.90
54082;DHT22;39986;50.770;0.266;2023-08-01T11:03:33;22.20;99.90
54082;DHT22;39986;50.770;0.266;2023-08-01T11:05:59;22.20;99.90
54082;DHT22;39986;50.770;0.266;2023-08-01T11:08:33;22.30;99.90
54082;DHT22;39986;50.770;0.266;2023-08-01T11:10:59;22.30;99.90
54082;DHT22;39986;50.770;0.266;2023-08-01T11:13:24;23.20;99.90
54082;DHT22;39986;50.770;0.266;2023-08-01T11:15:50;24.80;99.90
54082;DHT22;39986;50.770;0.266;2023-08-01T11:18:18;26.60;99.90
54082;DHT22;39986;50.770;0.266;2023-08-01T11:20:44;28.00;99.90
54082;DHT22;39986;50.770;0.266;2023-08-01T11:23:10;29.20;99.90
54082;DHT22;39986;50.770;0.266;2023-08-01T11:28:08;28.90;99.90
54082;DHT22;39986;50.770;0.266;2023-08-01T11:30:34;29.20;99.90
54082;DHT22;39986;50.770;0.266;2023-08-01T11:33:01;29.50;99.90
54082;DHT22;39986;50.770;0.266;2023-08-01T11:35:28;29.60;99.90
54082;DHT22;39986;50.770;0.266;2023-08-01T11:37:54;30.30;99.90
54082;DHT22;39986;50.770;0.266;2023-08-01T11:40:19;30.80;99.90
54082;DHT22;39986;50.770;0.266;2023-08-01T11:42:49;29.80;99.90
54082;DHT22;39986;50.770;0.266;2023-08-01T11:45:16;29.20;99.90
54082;DHT22;39986;50.770;0.266;2023-08-01T11:47:46;29.30;99.90
54082;DHT22;39986;50.770;0.266;2023-08-01T11:50:11;29.40;99.90
54082;DHT22;39986;50.770;0.266;2023-08-01T11:52:37;29.70;99.90
54082;DHT22;39986;50.770;0.266;2023-08-01T11:55:03;29.00;99.90
54082;DHT22;39986;50.770;0.266;2023-08-01T11:57:29;29.30;99.90
54082;DHT22;39986;50.770;0.266;2023-08-01T11:59:55;29.70;99.90
54082;DHT22;39986;50.770;0.266;2023-08-01T12:04:47;29.20;99.90
54082;DHT22;39986;50.770;0.266;2023-08-01T12:07:13;28.80;99.90
54082;DHT22;39986;50.770;0.266;2023-08-01T12:09:40;30.10;99.90
54082;DHT22;39986;50.770;0.266;2023-08-01T12:12:05;30.80;99.90
54082;DHT22;39986;50.770;0.266;2023-08-01T12:14:32;30.90;99.90
54082;DHT22;39986;50.770;0.266;2023-08-01T12:16:59;30.40;99.90
54082;DHT22;39986;50.770;0.266;2023-08-01T12:19:24;29.50;99.90
54082;DHT22;39986;50.770;0.266;2023-08-01T12:21:50;28.40;99.90
54082;DHT22;39986;50.770;0.266;2023-08-01T12:24:16;27.50;99.90
54082;DHT22;39986;50.770;0.266;2023-08-01T12:26:41;26.00;99.90
54082;DHT22;39986;50.770;0.266;2023-08-01T12:29:07;25.10;99.90
54082;DHT22;39986;50.770;0.266;2023-08-01T12:31:33;24.90;99.90
54082;DHT22;39986;50.770;0.266;2023-08-01T12:33:59;24.90;99.90
54082;DHT22;39986;50.770;0.266;2023-08-01T12:36:24;26.10;99.90
54082;DHT22;39986;50.770;0.266;2023-08-01T12:38:50;26.90;99.90
54082;DHT22;39986;50.770;0.266;2023-08-01T12:41:16;28.10;99.90
54082;DHT22;39986;50.770;0.266;2023-08-01T12:43:41;29.80;99.90
54082;DHT22;39986;50.770;0.266;2023-08-01T12:46:07;30.80;99.90
54082;DHT22;39986;50.770;0.266;2023-08-01T12:48:32;31.20;99.90
54082;DHT22;39986;50.770;0.266;2023-08-01T12:50:58;30.30;99.90
54082;DHT22;39986;50.770;0.266;2023-08-01T12:53:24;29.70;99.90
54082;DHT22;39986;50.770;0.266;2023-08-01T12:55:50;29.80;99.90
54082;DHT22;39986;50.770;0.266;2023-08-01T12:58:16;29.90;99.90
54082;DHT22;39986;50.770;0.266;2023-08-01T13:00:42;30.10;99.90
54082;DHT22;39986;50.770;0.266;2023-08-01T13:03:08;29.70;99.90
54082;DHT22;39986;50.770;0.266;2023-08-01T13:05:36;28.70;99.90
54082;DHT22;39986;50.770;0.266;2023-08-01T13:08:02;29.40;99.90
54082;DHT22;39986;50.770;0.266;2023-08-01T13:10:34;30.50;99.90
54082;DHT22;39986;50.770;0.266;2023-08-01T13:13:00;31.40;99.90
54082;DHT22;39986;50.770;0.266;2023-08-01T13:15:26;32.60;99.90
54082;DHT22;39986;50.770;0.266;2023-08-01T13:17:52;32.80;99.90
54082;DHT22;39986;50.770;0.266;2023-08-01T13:20:18;32.30;99.90
54082;DHT22;39986;50.770;0.266;2023-08-01T13:22:48;32.40;99.90
54082;DHT22;39986;50.770;0.266;2023-08-01T13:25:14;32.40;99.90
54082;DHT22;39986;50.770;0.266;2023-08-01T13:27:39;32.10;99.90
54082;DHT22;39986;50.770;0.266;2023-08-01T13:30:05;32.80;99.90
54082;DHT22;39986;50.770;0.266;2023-08-01T13:32:31;32.50;99.90
54082;DHT22;39986;50.770;0.266;2023-08-01T13:34:57;32.10;99.90
54082;DHT22;39986;50.770;0.266;2023-08-01T13:37:22;31.50;99.90
54082;DHT22;39986;50.770;0.266;2023-08-01T13:39:48;30.10;99.90
54082;DHT22;39986;50.770;0.266;2023-08-01T13:42:14;30.90;99.90
54082;DHT22;39986;50.770;0.266;2023-08-01T13:44:39;31.70;99.90
54082;DHT22;39986;50.770;0.266;2023-08-01T13:47:06;32.50;99.90
54082;DHT22;39986;50.770;0.266;2023-08-01T13:49:32;32.50;99.90
54082;DHT22;39986;50.770;0.266;2023-08-01T13:51:58;32.30;99.90
54082;DHT22;39986;50.770;0.266;2023-08-01T13:54:24;32.40;99.90
54082;DHT22;39986;50.770;0.266;2023-08-01T13:56:49;32.00;99.90
54082;DHT22;39986;50.770;0.266;2023-08-01T13:59:15;32.20;99.90
54082;DHT22;39986;50.770;0.266;2023-08-01T14:01:40;31.30;99.90
54082;DHT22;39986;50.770;0.266;2023-08-01T14:04:06;30.40;99.90
54082;DHT22;39986;50.770;0.266;2023-08-01T14:06:32;30.70;99.90
54082;DHT22;39986;50.770;0.266;2023-08-01T14:08:59;31.30;99.90
54082;DHT22;39986;50.770;0.266;2023-08-01T14:11:24;31.40;99.90
54082;DHT22;39986;50.770;0.266;2023-08-01T14:13:50;31.20;99.90
54082;DHT22;39986;50.770;0.266;2023-08-01T14:16:15;30.40;99.90
54082;DHT22;39986;50.770;0.266;2023-08-01T14:18:43;31.00;99.90
54082;DHT22;39986;50.770;0.266;2023-08-01T14:21:09;31.90;99.90
54082;DHT22;39986;50.770;0.266;2023-08-01T14:23:35;32.30;99.90
54082;DHT22;39986;50.770;0.266;2023-08-01T14:26:03;32.60;99.90
54082;DHT22;39986;50.770;0.266;2023-08-01T14:28:29;32.90;99.90
54082;DHT22;39986;50.770;0.266;2023-08-01T14:30:55;32.90;99.90
54082;DHT22;39986;50.770;0.266;2023-08-01T14:33:20;33.60;99.90
54082;DHT22;39986;50.770;0.266;2023-08-01T14:35:48;33.00;99.90
54082;DHT22;39986;50.770;0.266;2023-08-01T14:38:14;33.20;99.90
54082;DHT22;39986;50.770;0.266;2023-08-01T14:40:40;33.40;99.90
54082;DHT22;39986;50.770;0.266;2023-08-01T14:43:05;32.90;99.90
54082;DHT22;39986;50.770;0.266;2023-08-01T14:45:31;30.80;99.90
54082;DHT22;39986;50.770;0.266;2023-08-01T14:47:57;29.50;99.90
54082;DHT22;39986;50.770;0.266;2023-08-01T14:50:23;29.50;99.90
54082;DHT22;39986;50.770;0.266;2023-08-01T14:52:49;30.40;99.90
54082;DHT22;39986;50.770;0.266;2023-08-01T14:55:15;29.90;99.90
54082;DHT22;39986;50.770;0.266;2023-08-01T14:57:40;29.80;99.90
54082;DHT22;39986;50.770;0.266;2023-08-01T15:00:06;29.30;99.90
54082;DHT22;39986;50.770;0.266;2023-08-01T15:02:32;29.90;99.90
54082;DHT22;39986;50.770;0.266;2023-08-01T15:04:57;29.60;99.90
54082;DHT22;39986;50.770;0.266;2023-08-01T15:07:23;27.40;99.90
54082;DHT22;39986;50.770;0.266;2023-08-01T15:09:50;25.80;99.90
54082;DHT22;39986;50.770;0.266;2023-08-01T15:12:18;24.80;99.90
54082;DHT22;39986;50.770;0.266;2023-08-01T15:14:53;24.20;99.90
54082;DHT22;39986;50.770;0.266;2023-08-01T15:17:18;23.50;99.90
54082;DHT22;39986;50.770;0.266;2023-08-01T15:19:44;23.10;99.90
54082;DHT22;39986;50.770;0.266;2023-08-01T15:22:15;23.00;99.90
54082;DHT22;39986;50.770;0.266;2023-08-01T15:24:41;23.00;99.90
54082;DHT22;39986;50.770;0.266;2023-08-01T15:27:07;23.40;99.90
54082;DHT22;39986;50.770;0.266;2023-08-01T15:29:33;23.30;99.90
54082;DHT22;39986;50.770;0.266;2023-08-01T15:31:58;23.10;99.90